Time;durP1;ratioP1;P1;durP2;ratioP2;P2;SDS_P1;SDS_P2;PMS_P1;PMS_P2;Temp;Humidity;BMP_temperature;BMP_pressure;BME280_temperature;BME280_humidity;BME280_pressure;Samples;Min_cycle;Max_cycle;Signal;HPM_P1;HPM_P2
2022/11/11 00:00:13;;;;;;;25.45;16.85;;;;;;;7.67;100.00;102764.53;5030026;28;20029;-61
2022/11/11 00:02:38;;;;;;;24.05;16.02;;;;;;;7.68;100.00;102769.84;5029563;28;20113;-62
2022/11/11 00:05:03;;;;;;;25.10;16.02;;;;;;;7.72;100.00;102764.69;5029992;28;20678;-61
2022/11/11 00:07:29;;;;;;;25.33;15.95;;;;;;;7.78;100.00;102767.31;5029546;28;20041;-62
2022/11/11 00:09:54;;;;;;;24.75;16.52;;;;;;;7.79;100.00;102759.88;5029701;28;20025;-62
2022/11/11 00:12:20;;;;;;;26.80;16.58;;;;;;;7.81;100.00;102758.56;5029997;28;20029;-62
2022/11/11 00:14:45;;;;;;;25.02;16.85;;;;;;;7.88;100.00;102763.94;5029976;28;20029;-63
2022/11/11 00:25:24;;;;;;;27.02;16.75;;;;;;;8.06;100.00;102765.72;5030300;28;20048;-62
2022/11/11 00:27:49;;;;;;;26.33;16.65;;;;;;;8.15;100.00;102773.63;5030615;28;20029;-62
2022/11/11 00:30:15;;;;;;;24.50;16.85;;;;;;;8.08;100.00;102765.47;5030458;28;20116;-62
2022/11/11 00:32:40;;;;;;;25.02;17.60;;;;;;;8.14;100.00;102778.28;5028847;28;20032;-61
2022/11/11 00:37:50;;;;;;;26.45;17.45;;;;;;;8.19;100.00;102783.94;5030702;28;20178;-61
2022/11/11 00:40:15;;;;;;;25.02;18.33;;;;;;;8.20;100.00;102779.25;5028701;28;20064;-61
2022/11/11 00:42:41;;;;;;;27.20;19.00;;;;;;;8.21;100.00;102787.28;5032439;28;20029;-60
2022/11/11 00:45:06;;;;;;;28.55;19.33;;;;;;;8.22;100.00;102786.19;5033856;28;20040;-62
2022/11/11 00:53:17;;;;;;;26.98;19.52;;;;;;;8.30;100.00;102790.50;5052560;28;19916;-62
2022/11/11 00:55:42;;;;;;;26.15;18.50;;;;;;;8.27;100.00;102788.22;5035435;28;20461;-62
2022/11/11 00:58:07;;;;;;;26.92;19.02;;;;;;;8.32;100.00;102791.09;5053245;28;20091;-62
2022/11/11 01:00:33;;;;;;;28.13;19.70;;;;;;;8.28;100.00;102790.75;5053502;28;20460;-62
2022/11/11 01:02:58;;;;;;;27.73;18.92;;;;;;;8.28;100.00;102796.25;5053501;28;20468;-62
2022/11/11 01:05:24;;;;;;;27.70;19.60;;;;;;;8.26;100.00;102803.09;5053017;28;20069;-62
2022/11/11 01:07:50;;;;;;;28.45;18.67;;;;;;;8.22;100.00;102797.22;5053139;28;20190;-61
2022/11/11 01:10:37;;;;;;;28.73;20.25;;;;;;;8.22;100.00;102797.22;5053540;28;20094;-61
2022/11/11 01:13:13;;;;;;;28.80;19.83;;;;;;;8.30;100.00;102809.81;5053781;28;20141;-61
2022/11/11 01:15:44;;;;;;;28.20;19.33;;;;;;;8.24;100.00;102795.06;5053437;28;20407;-62
2022/11/11 01:18:11;;;;;;;28.55;20.25;;;;;;;8.31;100.00;102808.72;5035349;28;20163;-62
2022/11/11 01:20:37;;;;;;;28.15;19.45;;;;;;;8.33;100.00;102809.31;5053137;28;20041;-60
2022/11/11 01:23:06;;;;;;;29.15;19.70;;;;;;;8.33;100.00;102806.56;5052769;28;20083;-61
2022/11/11 01:25:34;;;;;;;28.40;20.45;;;;;;;8.38;100.00;102797.56;5052883;28;20025;-62
2022/11/11 01:27:59;;;;;;;29.77;20.25;;;;;;;8.36;100.00;102799.72;5052762;28;20055;-61
2022/11/11 01:30:25;;;;;;;27.45;20.92;;;;;;;8.35;100.00;102803.56;5052887;28;20106;-62
2022/11/11 01:32:50;;;;;;;28.02;19.83;;;;;;;8.34;100.00;102791.69;5053122;28;20072;-62
2022/11/11 01:35:15;;;;;;;29.20;21.08;;;;;;;8.36;100.00;102777.66;5052974;28;20029;-61
2022/11/11 01:37:41;;;;;;;28.83;22.00;;;;;;;8.39;100.00;102783.53;5053111;28;20385;-62
2022/11/11 01:40:07;;;;;;;27.92;20.33;;;;;;;8.37;100.00;102784.84;5053072;28;20021;-62
2022/11/11 01:42:46;;;;;;;27.98;20.10;;;;;;;8.41;100.00;102786.88;5052662;28;20025;-62
2022/11/11 01:45:45;;;;;;;29.17;20.65;;;;;;;8.45;100.00;102778.94;5052570;28;20116;-62
2022/11/11 01:51:10;;;;;;;31.55;21.15;;;;;;;8.30;100.00;102762.09;5050345;28;20349;-60
2022/11/11 01:53:35;;;;;;;28.52;20.98;;;;;;;8.40;100.00;102768.66;5052158;28;20040;-60
2022/11/11 01:56:01;;;;;;;27.08;19.75;;;;;;;8.41;100.00;102767.56;5052518;28;20033;-61
2022/11/11 01:58:27;;;;;;;28.85;20.92;;;;;;;8.38;100.00;102764.47;5052287;28;20084;-61
2022/11/11 02:00:53;;;;;;;29.30;20.38;;;;;;;8.47;100.00;102771.31;5051991;28;20341;-61
2022/11/11 02:03:20;;;;;;;28.23;21.10;;;;;;;8.49;100.00;102774.66;5052142;28;20041;-61
2022/11/11 02:05:45;;;;;;;29.95;20.25;;;;;;;8.48;100.00;102767.47;5051725;28;20368;-61
2022/11/11 02:08:34;;;;;;;28.98;21.27;;;;;;;8.49;100.00;102768.28;5052159;28;20472;-62
2022/11/11 02:11:14;;;;;;;28.25;20.52;;;;;;;8.36;100.00;102750.91;5052159;28;20087;-61
2022/11/11 02:16:26;;;;;;;29.77;20.55;;;;;;;8.48;100.00;102747.31;5051972;28;20051;-61
2022/11/11 02:18:51;;;;;;;29.27;20.58;;;;;;;8.42;100.00;102740.81;5052265;28;20033;-61
2022/11/11 02:21:31;;;;;;;28.33;20.02;;;;;;;8.43;100.00;102729.56;5052000;28;20128;-61
2022/11/11 02:24:07;;;;;;;29.25;19.95;;;;;;;8.37;100.00;102729.69;5052301;28;20473;-61
2022/11/11 02:26:35;;;;;;;29.83;19.42;;;;;;;8.43;100.00;102743.34;5052046;28;20115;-61
2022/11/11 02:29:04;;;;;;;29.25;19.63;;;;;;;8.44;100.00;102755.22;5052147;28;20027;-60
2022/11/11 02:31:31;;;;;;;31.23;20.55;;;;;;;8.42;100.00;102760.13;5052192;28;20029;-61
2022/11/11 02:33:56;;;;;;;31.30;21.42;;;;;;;8.38;100.00;102758.94;5052448;28;20032;-62
2022/11/11 02:36:22;;;;;;;30.63;20.60;;;;;;;8.40;100.00;102765.91;5052266;28;20096;-61
2022/11/11 02:38:47;;;;;;;31.10;20.60;;;;;;;8.39;100.00;102763.38;5052201;28;20051;-60
2022/11/11 02:43:56;;;;;;;;;;;;;;;8.55;100.00;102757.13;5052211;28;20062;-61
2022/11/11 02:46:22;;;;;;;29.17;20.23;;;;;;;8.45;100.00;102750.53;5049746;28;19912;-63
2022/11/11 02:48:47;;;;;;;31.55;20.23;;;;;;;8.46;100.00;102750.28;5051464;28;20333;-60
2022/11/11 02:51:12;;;;;;;29.73;20.80;;;;;;;8.45;100.00;102743.09;5051932;28;20021;-61
2022/11/11 02:53:38;;;;;;;28.40;20.50;;;;;;;8.46;100.00;102736.50;5051472;28;20029;-62
2022/11/11 02:56:03;;;;;;;28.58;19.85;;;;;;;8.48;100.00;102728.00;5051259;28;20813;-61
2022/11/11 02:58:29;;;;;;;31.33;21.08;;;;;;;8.45;100.00;102734.81;5050821;28;20040;-62
2022/11/11 03:00:54;;;;;;;32.03;20.88;;;;;;;8.44;100.00;102752.44;5051131;28;20310;-62
2022/11/11 03:03:19;;;;;;;31.52;20.63;;;;;;;8.39;100.00;102763.38;5051248;28;20168;-61
2022/11/11 03:05:45;;;;;;;32.25;20.48;;;;;;;8.37;100.00;102749.81;5050433;28;20369;-63
2022/11/11 03:08:10;;;;;;;30.02;20.75;;;;;;;8.36;100.00;102750.06;5050593;28;20032;-62
2022/11/11 03:10:35;;;;;;;28.20;20.55;;;;;;;8.34;100.00;102753.09;5050715;28;20154;-62
2022/11/11 03:13:01;;;;;;;28.58;20.38;;;;;;;8.41;100.00;102761.19;5050640;28;20036;-62
2022/11/11 03:15:26;;;;;;;28.92;20.08;;;;;;;8.35;100.00;102760.28;5050475;28;20032;-61
2022/11/11 03:17:51;;;;;;;27.50;19.85;;;;;;;8.32;100.00;102748.88;5050847;28;20468;-61
2022/11/11 03:23:07;;;;;;;28.45;19.40;;;;;;;8.26;100.00;102757.06;5051052;28;20150;-62
2022/11/11 03:25:36;;;;;;;29.75;19.77;;;;;;;8.32;100.00;102759.91;5050521;28;20062;-62
2022/11/11 03:28:02;;;;;;;27.75;19.15;;;;;;;8.28;100.00;102751.28;5050693;28;20033;-62
2022/11/11 03:30:28;;;;;;;29.13;19.33;;;;;;;8.28;100.00;102760.41;5050926;28;20033;-60
2022/11/11 03:32:53;;;;;;;29.30;20.30;;;;;;;8.26;100.00;102747.97;5050963;28;20358;-62
2022/11/11 03:35:18;;;;;;;26.95;19.60;;;;;;;8.26;100.00;102743.28;5050832;28;20029;-62
2022/11/11 03:40:27;;;;;;;26.75;18.60;;;;;;;8.26;100.00;102754.28;5050742;28;20067;-62
2022/11/11 03:42:52;;;;;;;27.88;19.02;;;;;;;8.24;100.00;102753.69;5048127;28;20055;-62
2022/11/11 03:45:18;;;;;;;27.95;18.70;;;;;;;8.22;100.00;102755.03;5050664;28;20078;-63
2022/11/11 03:47:43;;;;;;;31.20;20.33;;;;;;;8.18;100.00;102751.91;5050930;28;20047;-61
2022/11/11 03:50:08;;;;;;;29.05;19.20;;;;;;;8.17;100.00;102741.16;5032609;28;20028;-62
2022/11/11 03:52:33;;;;;;;28.85;19.52;;;;;;;8.17;100.00;102746.66;5050924;28;20408;-62
2022/11/11 03:54:59;;;;;;;28.67;19.55;;;;;;;8.14;100.00;102745.22;5050497;28;20040;-62
2022/11/11 03:57:30;;;;;;;26.73;18.77;;;;;;;8.15;100.00;102743.31;5050344;28;20025;-61
2022/11/11 03:59:55;;;;;;;30.15;19.35;;;;;;;8.13;100.00;102746.28;5050008;28;20040;-62
2022/11/11 04:10:34;;;;;;;26.38;18.52;;;;;;;8.14;100.00;102761.75;5050392;28;20198;-62
2022/11/11 04:23:55;;;;;;;28.27;18.92;;;;;;;8.05;100.00;102760.44;5053994;28;20086;-61
2022/11/11 04:26:20;;;;;;;25.33;18.67;;;;;;;8.16;100.00;102780.81;5053754;28;20137;-61
2022/11/11 04:31:30;;;;;;;26.92;19.08;;;;;;;8.11;100.00;102776.88;5054363;28;20194;-63
2022/11/11 04:33:55;;;;;;;27.95;18.83;;;;;;;8.08;100.00;102780.09;5054444;28;20033;-63
2022/11/11 04:36:21;;;;;;;27.02;19.63;;;;;;;8.08;100.00;102773.75;5054253;28;20379;-63
2022/11/11 04:41:30;;;;;;;26.95;18.30;;;;;;;8.08;100.00;102771.00;5054339;28;20131;-61
2022/11/11 04:46:39;;;;;;;25.95;19.02;;;;;;;8.03;100.00;102770.91;5054307;28;20047;-61
2022/11/11 04:49:04;;;;;;;28.67;19.00;;;;;;;7.99;100.00;102758.66;5054204;28;20106;-61
2022/11/11 04:52:25;;;;;;;25.88;18.83;;;;;;;8.01;100.00;102768.38;5053633;28;20109;-61
2022/11/11 04:54:14;;;;;;;28.77;19.67;;;;;;;7.99;100.00;102765.00;5053480;28;20447;-62
2022/11/11 04:56:49;;;;;;;27.02;18.90;;;;;;;8.02;100.00;102763.72;5053415;28;20476;-61
2022/11/11 04:59:18;;;;;;;24.92;18.10;;;;;;;8.03;100.00;102762.63;5053505;28;20044;-62
2022/11/11 05:04:28;;;;;;;;;;;;;;;8.09;100.00;102767.16;5054227;28;20083;-61
2022/11/11 05:09:36;;;;;;;27.58;20.10;;;;;;;8.00;100.00;102769.44;5053924;28;20321;-62
2022/11/11 05:12:02;;;;;;;26.95;18.55;;;;;;;7.97;100.00;102765.25;5053310;28;20037;-62
2022/11/11 05:22:41;;;;;;;28.97;19.63;;;;;;;7.95;100.00;102772.91;5053491;28;20069;-62
2022/11/11 05:25:25;;;;;;;26.33;19.08;;;;;;;7.90;100.00;102774.72;5052905;28;20025;-62
2022/11/11 05:27:54;;;;;;;26.95;18.80;;;;;;;7.87;100.00;102776.03;5052729;28;20071;-61
2022/11/11 05:30:22;;;;;;;26.60;19.15;;;;;;;7.89;100.00;102775.78;5053011;28;20108;-61
2022/11/11 05:32:48;;;;;;;27.42;18.80;;;;;;;7.89;100.00;102773.91;5053084;28;20021;-61
2022/11/11 05:35:14;;;;;;;27.52;18.98;;;;;;;7.83;100.00;102774.00;5049869;28;20108;-62
2022/11/11 05:37:40;;;;;;;28.45;19.08;;;;;;;7.79;100.00;102768.13;5052370;28;20067;-62
2022/11/11 05:40:07;;;;;;;26.95;18.50;;;;;;;7.78;100.00;102763.72;5052149;28;20029;-62
2022/11/11 05:42:32;;;;;;;25.63;18.80;;;;;;;7.79;100.00;102762.63;5052225;28;20039;-62
2022/11/11 05:44:57;;;;;;;27.02;18.73;;;;;;;7.83;100.00;102768.50;5052280;28;20104;-61
2022/11/11 05:47:23;;;;;;;26.13;18.75;;;;;;;7.81;100.00;102766.81;5052353;28;20029;-61
2022/11/11 05:49:48;;;;;;;27.63;19.20;;;;;;;7.80;100.00;102769.81;5052715;28;20028;-61
2022/11/11 05:52:15;;;;;;;26.02;19.27;;;;;;;7.75;100.00;102773.28;5052595;28;20058;-61
2022/11/11 05:54:41;;;;;;;26.20;19.65;;;;;;;7.72;100.00;102775.69;5052378;28;20105;-62
2022/11/11 05:57:08;;;;;;;27.65;19.60;;;;;;;7.68;100.00;102772.59;5034557;28;20179;-61
2022/11/11 05:59:33;;;;;;;25.77;19.00;;;;;;;7.65;100.00;102773.88;5052733;28;20053;-62
2022/11/11 06:01:58;;;;;;;25.27;18.67;;;;;;;7.62;100.00;102779.03;5052754;28;20044;-61
2022/11/11 06:04:24;;;;;;;27.40;19.27;;;;;;;7.58;100.00;102773.16;5052539;28;20094;-61
2022/11/11 06:06:50;;;;;;;30.05;21.33;;;;;;;7.55;100.00;102778.31;5052381;28;20075;-62
2022/11/11 06:09:15;;;;;;;26.40;18.75;;;;;;;7.49;100.00;102789.22;5052731;28;20445;-61
2022/11/11 06:11:41;;;;;;;27.08;19.77;;;;;;;7.43;100.00;102792.06;5051898;28;20025;-60
2022/11/11 06:14:06;;;;;;;28.55;20.17;;;;;;;7.42;100.00;102795.91;5052117;28;20166;-61
2022/11/11 06:16:32;;;;;;;28.45;20.02;;;;;;;7.35;100.00;102793.25;5051780;28;20032;-61
2022/11/11 06:18:58;;;;;;;28.25;20.63;;;;;;;7.29;100.00;102789.53;5051887;28;20508;-62
2022/11/11 06:21:24;;;;;;;27.63;20.05;;;;;;;7.27;100.00;102794.44;5051047;28;20033;-61
2022/11/11 06:23:49;;;;;;;27.88;20.42;;;;;;;7.22;100.00;102791.56;5051073;28;20047;-61
2022/11/11 06:26:15;;;;;;;29.58;20.63;;;;;;;7.18;100.00;102795.84;5050992;28;20025;-61
2022/11/11 06:28:48;;;;;;;27.80;19.35;;;;;;;7.17;100.00;102792.25;5030763;28;20039;-62
2022/11/11 06:31:19;;;;;;;28.27;20.40;;;;;;;7.12;100.00;102789.38;5050964;28;20035;-62
2022/11/11 06:33:45;;;;;;;27.38;19.65;;;;;;;7.12;100.00;102796.78;5050835;28;20036;-62
2022/11/11 06:36:13;;;;;;;28.15;19.05;;;;;;;7.05;100.00;102793.28;5050307;28;20037;-61
2022/11/11 06:38:42;;;;;;;27.88;19.58;;;;;;;7.07;100.00;102816.75;5050119;28;20039;-61
2022/11/11 06:41:09;;;;;;;28.45;19.63;;;;;;;7.04;100.00;102819.97;5049996;28;20028;-61
2022/11/11 06:43:34;;;;;;;27.92;19.65;;;;;;;7.03;100.00;102824.66;5032615;28;20028;-61
2022/11/11 06:45:59;;;;;;;27.88;20.08;;;;;;;7.02;100.00;102825.72;5050935;28;20495;-61
2022/11/11 06:48:27;;;;;;;28.80;20.55;;;;;;;7.02;100.00;102819.38;5050741;28;20037;-62
2022/11/11 06:50:54;;;;;;;28.45;19.98;;;;;;;7.00;100.00;102816.84;5032451;28;20484;-62
2022/11/11 06:53:20;;;;;;;28.17;19.85;;;;;;;7.01;100.00;102814.94;5050325;28;20037;-61
2022/11/11 06:55:46;;;;;;;26.75;19.40;;;;;;;6.97;100.00;102816.47;5050353;28;20025;-61
2022/11/11 06:58:17;;;;;;;28.50;20.27;;;;;;;6.91;100.00;102815.50;5050289;28;20202;-61
2022/11/11 07:00:50;;;;;;;27.00;20.20;;;;;;;6.88;100.00;102821.47;5066503;28;20425;-61
2022/11/11 07:03:20;;;;;;;28.83;20.65;;;;;;;6.81;100.00;102812.44;5066656;28;20489;-62
2022/11/11 07:05:45;;;;;;;28.30;19.95;;;;;;;6.78;100.00;102819.25;5066533;28;20036;-61
2022/11/11 07:08:14;;;;;;;28.05;19.08;;;;;;;6.70;100.00;102814.94;5066424;28;20036;-61
2022/11/11 07:10:43;;;;;;;29.95;20.17;;;;;;;6.66;100.00;102808.22;5066207;28;20056;-62
2022/11/11 07:13:09;;;;;;;29.02;19.27;;;;;;;6.59;100.00;102817.59;5065964;28;20025;-62
2022/11/11 07:15:35;;;;;;;29.42;19.27;;;;;;;6.58;100.00;102822.28;5067318;28;20392;-62
2022/11/11 07:18:01;;;;;;;28.10;18.25;;;;;;;6.54;100.00;102824.66;5064995;28;20048;-63
2022/11/11 07:20:26;;;;;;;29.30;19.23;;;;;;;6.51;100.00;102822.34;5062676;28;20570;-62
2022/11/11 07:22:51;;;;;;;28.80;19.05;;;;;;;6.52;100.00;102823.19;5062823;28;20057;-62
2022/11/11 07:25:17;;;;;;;29.23;18.85;;;;;;;6.54;100.00;102834.78;5058612;28;20701;-62
2022/11/11 07:27:42;;;;;;;30.05;19.08;;;;;;;6.50;100.00;102834.41;5062828;28;20021;-62
2022/11/11 07:30:10;;;;;;;30.30;19.20;;;;;;;6.50;100.00;102850.09;5062943;28;20024;-62
2022/11/11 07:32:35;;;;;;;30.85;19.60;;;;;;;6.51;100.00;102849.84;5064015;28;20028;-62
2022/11/11 07:35:01;;;;;;;30.05;19.23;;;;;;;6.52;100.00;102840.53;5066760;28;20090;-62
2022/11/11 07:37:27;;;;;;;30.02;20.42;;;;;;;6.53;100.00;102850.47;5066726;28;20021;-62
2022/11/11 07:39:53;;;;;;;32.97;20.00;;;;;;;6.55;100.00;102845.59;5066378;28;20047;-62
2022/11/11 07:42:19;;;;;;;31.85;20.30;;;;;;;6.54;100.00;102860.41;5066616;28;20028;-62
2022/11/11 07:44:44;;;;;;;29.58;19.95;;;;;;;6.55;100.00;102845.59;5066263;28;20384;-62
2022/11/11 07:47:09;;;;;;;31.92;19.98;;;;;;;6.59;100.00;102850.59;5066620;28;20021;-62
2022/11/11 07:49:34;;;;;;;29.83;19.35;;;;;;;6.59;100.00;102864.34;5066377;28;20495;-62
2022/11/11 07:52:00;;;;;;;30.58;20.52;;;;;;;6.60;100.00;102863.28;5066402;28;20029;-62
2022/11/11 07:54:25;;;;;;;31.15;18.60;;;;;;;6.62;100.00;102870.25;5066378;28;20024;-62
2022/11/11 07:56:51;;;;;;;30.60;20.10;;;;;;;6.62;100.00;102863.91;5066515;28;20020;-62
2022/11/11 07:59:16;;;;;;;31.45;19.70;;;;;;;6.65;100.00;102872.53;5064951;28;20075;-62
2022/11/11 08:01:42;;;;;;;32.00;19.55;;;;;;;6.67;100.00;102875.91;5064513;28;20066;-62
2022/11/11 08:04:07;;;;;;;31.33;20.10;;;;;;;6.66;100.00;102865.16;5064601;28;20021;-62
2022/11/11 08:06:32;;;;;;;29.73;20.20;;;;;;;6.67;100.00;102883.31;5064337;28;20075;-62
2022/11/11 08:08:58;;;;;;;30.88;19.77;;;;;;;6.71;100.00;102887.28;5064640;28;20024;-62
2022/11/11 08:14:07;;;;;;;;;;;;;;;6.82;100.00;102903.03;5052835;28;20102;-62
2022/11/11 08:16:33;;;;;;;32.10;19.95;;;;;;;6.84;100.00;102905.53;5052785;28;20337;-61
2022/11/11 08:18:59;;;;;;;31.17;19.42;;;;;;;6.84;100.00;102909.16;5052445;28;20021;-61
2022/11/11 08:21:24;;;;;;;32.10;19.50;;;;;;;6.89;100.00;102902.94;5052767;28;20048;-62
2022/11/11 08:23:50;;;;;;;32.25;19.58;;;;;;;6.89;100.00;102913.09;5052754;28;20045;-64
2022/11/11 08:26:17;;;;;;;31.15;20.25;;;;;;;6.90;100.00;102901.84;5052789;28;20024;-62
2022/11/11 08:28:43;;;;;;;29.23;19.73;;;;;;;6.93;100.00;102901.41;5052573;28;20043;-62
2022/11/11 08:31:09;;;;;;;33.03;19.58;;;;;;;6.97;100.00;102912.78;5052478;28;20048;-63
2022/11/11 08:33:35;;;;;;;30.52;19.77;;;;;;;7.00;100.00;102931.59;5052559;28;20048;-63
2022/11/11 08:36:01;;;;;;;29.25;19.95;;;;;;;7.01;100.00;102928.59;5052321;28;20074;-62
2022/11/11 08:38:26;;;;;;;30.40;19.42;;;;;;;7.05;100.00;102930.91;5052360;28;20032;-63
2022/11/11 08:40:52;;;;;;;31.42;19.55;;;;;;;7.08;100.00;102924.94;5052340;28;20025;-62
2022/11/11 08:43:18;;;;;;;29.52;19.60;;;;;;;7.11;100.00;102928.06;5052251;28;20044;-63
2022/11/11 08:45:43;;;;;;;29.70;18.95;;;;;;;7.14;100.00;102932.28;5052311;28;20033;-70
2022/11/11 08:48:09;;;;;;;28.38;18.25;;;;;;;7.17;100.00;102924.38;5052315;28;20024;-66
2022/11/11 08:50:39;;;;;;;29.35;17.83;;;;;;;7.21;100.00;102940.44;5052105;28;20469;-66
2022/11/11 08:53:08;;;;;;;27.00;17.85;;;;;;;7.24;100.00;102934.47;5052113;28;20025;-66
2022/11/11 08:55:36;;;;;;;29.00;18.02;;;;;;;7.24;100.00;102931.72;5049279;28;20476;-66
2022/11/11 08:58:06;;;;;;;25.95;17.27;;;;;;;7.24;100.00;102927.06;5049144;28;20063;-66
2022/11/11 09:00:32;;;;;;;27.13;18.00;;;;;;;7.33;100.00;102928.41;5050598;28;20049;-66
2022/11/11 09:03:03;;;;;;;26.65;16.63;;;;;;;7.40;100.00;102932.97;5050754;28;20045;-66
2022/11/11 09:05:29;;;;;;;25.92;16.67;;;;;;;7.39;100.00;102926.66;5046222;28;20107;-66
2022/11/11 09:07:54;;;;;;;27.55;17.67;;;;;;;7.42;100.00;102931.66;5039860;28;20108;-66
2022/11/11 09:10:19;;;;;;;26.13;17.35;;;;;;;7.45;100.00;102931.22;5030930;28;20088;-66
2022/11/11 09:12:45;;;;;;;26.10;17.23;;;;;;;7.50;100.00;102938.78;5031097;28;20030;-66
2022/11/11 09:15:10;;;;;;;25.58;16.17;;;;;;;7.54;100.00;102939.13;5030138;28;20427;-66
2022/11/11 09:17:36;;;;;;;26.80;17.50;;;;;;;7.54;100.00;102937.25;5031302;28;20393;-66
2022/11/11 09:20:02;;;;;;;25.08;16.92;;;;;;;7.58;100.00;102940.38;5031334;28;20033;-67
2022/11/11 09:22:27;;;;;;;24.23;15.60;;;;;;;7.60;100.00;102932.72;5030336;28;20026;-65
2022/11/11 09:24:53;;;;;;;26.63;16.55;;;;;;;7.66;100.00;102940.03;5031132;28;20064;-65
2022/11/11 09:27:18;;;;;;;27.48;17.17;;;;;;;7.69;100.00;102935.94;5030947;28;20424;-65
2022/11/11 09:29:44;;;;;;;26.85;16.35;;;;;;;7.74;100.00;102938.84;5030810;28;20517;-65
2022/11/11 09:32:09;;;;;;;24.85;16.17;;;;;;;7.76;100.00;102929.28;5031289;28;20129;-65
2022/11/11 09:34:34;;;;;;;24.83;16.20;;;;;;;7.79;100.00;102933.47;5031735;28;20061;-65
2022/11/11 09:37:00;;;;;;;24.02;16.27;;;;;;;7.80;100.00;102927.72;5031544;28;20480;-68
2022/11/11 09:39:25;;;;;;;23.17;15.45;;;;;;;7.86;100.00;102936.13;5031443;28;20026;-67
2022/11/11 09:42:16;;;;;;;23.38;15.55;;;;;;;7.92;100.00;102940.69;5031707;28;20606;-67
2022/11/11 09:45:08;;;;;;;24.77;15.68;;;;;;;7.95;100.00;102941.03;5031612;28;20022;-66
2022/11/11 09:48:04;;;;;;;23.70;14.82;;;;;;;8.04;100.00;102943.44;5031026;28;20034;-67
2022/11/11 09:50:34;;;;;;;23.05;15.32;;;;;;;8.07;100.00;102943.00;5030559;28;20118;-67
2022/11/11 09:53:10;;;;;;;24.02;14.85;;;;;;;8.09;100.00;102936.16;5030709;28;20311;-66
2022/11/11 09:55:43;;;;;;;23.88;14.98;;;;;;;8.19;100.00;102940.22;5030834;28;20053;-67
2022/11/11 09:58:17;;;;;;;21.85;14.90;;;;;;;8.21;100.00;102941.69;5030303;28;20021;-67
2022/11/11 10:00:46;;;;;;;23.27;14.40;;;;;;;8.25;100.00;102937.38;5029499;28;20136;-67
2022/11/11 10:03:16;;;;;;;22.58;14.70;;;;;;;8.37;100.00;102947.56;5029874;28;20047;-66
2022/11/11 10:05:55;;;;;;;22.83;14.35;;;;;;;8.41;100.00;102948.75;5029813;28;20041;-67
2022/11/11 10:08:40;;;;;;;23.63;14.30;;;;;;;8.47;100.00;102938.69;5029591;28;20033;-66
2022/11/11 10:11:14;;;;;;;23.00;14.68;;;;;;;8.54;100.00;102950.50;5029869;28;20029;-66
2022/11/11 10:13:39;;;;;;;22.40;14.48;;;;;;;8.56;100.00;102967.63;5028824;28;20441;-67
2022/11/11 10:16:39;;;;;;;21.83;13.95;;;;;;;8.57;100.00;102955.50;5029830;28;20082;-67
2022/11/11 10:19:15;;;;;;;22.33;14.32;;;;;;;8.62;100.00;102960.28;5029677;28;20033;-67
2022/11/11 10:21:48;;;;;;;23.02;14.57;;;;;;;8.64;100.00;102950.72;5029757;28;20029;-66
2022/11/11 10:24:21;;;;;;;21.98;14.25;;;;;;;8.67;100.00;102954.91;5029658;28;20094;-66
2022/11/11 10:26:47;;;;;;;21.60;14.20;;;;;;;8.75;100.00;102954.53;5025679;28;20017;-66
2022/11/11 10:29:17;;;;;;;21.88;13.85;;;;;;;8.76;100.00;102953.47;5029069;28;20053;-67
2022/11/11 10:31:46;;;;;;;22.65;13.88;;;;;;;8.82;98.84;102958.00;5029366;28;20140;-67
2022/11/11 10:34:15;;;;;;;21.88;13.27;;;;;;;8.81;97.97;102947.22;5028948;28;20112;-67
2022/11/11 10:36:54;;;;;;;21.17;14.02;;;;;;;8.84;98.30;102957.75;5028777;28;20033;-66
2022/11/11 10:39:41;;;;;;;22.65;14.07;;;;;;;8.95;98.45;102961.59;5028029;28;20022;-67
2022/11/11 10:42:16;;;;;;;21.00;13.38;;;;;;;8.98;98.20;102961.94;5027873;28;20123;-67
2022/11/11 10:44:41;;;;;;;21.83;14.07;;;;;;;9.04;97.86;102958.19;5028190;28;20044;-67
2022/11/11 10:47:12;;;;;;;20.95;12.90;;;;;;;9.09;97.33;102954.69;5028250;28;20381;-67
2022/11/11 10:49:48;;;;;;;21.65;13.70;;;;;;;9.18;97.72;102950.47;5028388;28;20049;-67
2022/11/11 10:52:22;;;;;;;21.67;13.32;;;;;;;9.28;97.25;102949.00;5029114;28;20033;-66
2022/11/11 10:55:01;;;;;;;20.98;13.35;;;;;;;9.34;96.20;102957.16;5029446;28;20071;-67
2022/11/11 10:57:46;;;;;;;22.65;13.88;;;;;;;9.41;95.84;102948.72;5029185;28;20043;-67
2022/11/11 11:00:13;;;;;;;22.00;13.15;;;;;;;9.52;95.82;102955.28;5028795;28;20058;-67
2022/11/11 11:03:22;;;;;;;20.85;13.45;;;;;;;9.55;95.34;102943.72;5029009;28;20046;-68
2022/11/11 11:05:50;;;;;;;20.38;13.13;;;;;;;9.59;93.94;102946.84;5029211;28;20115;-67
2022/11/11 11:08:21;;;;;;;22.48;13.77;;;;;;;9.69;93.91;102952.56;5026278;28;20033;-67
2022/11/11 11:10:54;;;;;;;22.40;14.40;;;;;;;9.74;94.62;102949.88;5028923;28;20029;-67
2022/11/11 11:13:41;;;;;;;20.02;12.77;;;;;;;9.86;93.44;102946.19;5029234;28;20464;-67
2022/11/11 11:16:16;;;;;;;21.70;13.00;;;;;;;9.90;93.40;102941.88;5028848;28;20128;-64
2022/11/11 11:18:41;;;;;;;20.13;12.30;;;;;;;9.95;92.52;102948.31;5029089;28;20025;-66
2022/11/11 11:21:07;;;;;;;20.52;12.45;;;;;;;10.03;92.16;102941.53;5029148;28;20447;-66
2022/11/11 11:23:40;;;;;;;20.40;12.43;;;;;;;10.04;91.49;102936.84;5029073;28;20033;-66
2022/11/11 11:26:09;;;;;;;20.25;12.30;;;;;;;10.09;90.61;102934.16;5028855;28;20029;-66
2022/11/11 11:28:34;;;;;;;20.30;12.13;;;;;;;10.18;91.06;102938.16;5028833;28;20033;-66
2022/11/11 11:31:05;;;;;;;19.45;11.73;;;;;;;10.24;90.19;102942.72;5028453;28;20021;-66
2022/11/11 11:33:53;;;;;;;19.92;11.68;;;;;;;10.32;89.89;102933.13;5027355;28;20092;-68
2022/11/11 11:36:19;;;;;;;18.95;11.27;;;;;;;10.32;88.76;102933.13;5027401;28;20029;-66
2022/11/11 11:38:49;;;;;;;19.23;11.48;;;;;;;10.34;88.27;102925.41;5026809;28;20429;-66
2022/11/11 11:41:15;;;;;;;19.08;12.00;;;;;;;10.43;88.33;102931.41;5030261;28;20013;-67
2022/11/11 11:43:44;;;;;;;20.15;11.88;;;;;;;10.50;89.01;102932.06;5046445;28;20037;-66
2022/11/11 11:46:25;;;;;;;18.00;11.15;;;;;;;10.59;88.09;102935.22;5047757;28;20025;-66
2022/11/11 11:49:09;;;;;;;17.92;11.07;;;;;;;10.66;88.13;102929.50;5052691;28;20480;-66
2022/11/11 11:52:11;;;;;;;19.08;10.82;;;;;;;10.75;88.02;102930.72;5052555;28;20095;-66
2022/11/11 11:54:57;;;;;;;18.73;10.85;;;;;;;10.82;87.54;102925.84;5052260;28;20090;-66
2022/11/11 11:57:43;;;;;;;18.20;10.75;;;;;;;10.86;86.87;102924.25;5051041;28;20045;-66
2022/11/11 12:00:17;;;;;;;18.48;10.85;;;;;;;10.91;86.43;102924.28;5051852;28;20057;-66
2022/11/11 12:03:03;;;;;;;17.90;10.43;;;;;;;10.93;85.92;102927.66;5050945;28;20037;-66
2022/11/11 12:05:39;;;;;;;17.67;10.60;;;;;;;10.91;86.38;102913.22;5047448;28;20048;-67
2022/11/11 12:08:19;;;;;;;18.85;10.80;;;;;;;10.98;85.20;102926.88;5052294;28;20076;-67
2022/11/11 12:11:05;;;;;;;18.77;10.70;;;;;;;10.96;85.54;102917.97;5052485;28;20036;-67
2022/11/11 12:13:37;;;;;;;19.65;11.32;;;;;;;11.02;85.79;102928.03;5051093;28;20071;-67
2022/11/11 12:16:34;;;;;;;17.73;11.00;;;;;;;11.07;85.64;102922.56;5045870;28;20124;-67
2022/11/11 12:19:28;;;;;;;19.55;10.55;;;;;;;11.14;86.73;102911.28;5032166;28;20025;-67
2022/11/11 12:22:05;;;;;;;;;;;;;;;11.23;85.96;102917.22;5032711;28;20148;-67
2022/11/11 12:24:39;;;;;;;18.17;11.05;;;;;;;11.26;85.11;102915.84;5034529;28;20384;-67
2022/11/11 12:27:34;;;;;;;15.98;10.07;;;;;;;11.32;85.40;102906.47;5052106;28;20037;-68
2022/11/11 12:30:09;;;;;;;16.98;10.18;;;;;;;11.33;84.31;102902.63;5049190;28;20106;-67
2022/11/11 12:32:43;;;;;;;18.20;10.00;;;;;;;11.33;83.81;102894.31;5051857;28;20033;-67
2022/11/11 12:35:47;;;;;;;18.17;10.50;;;;;;;11.37;84.63;102889.94;5051549;28;20044;-67